sensor_id;sensor_type;location;lat;lon;timestamp;P1;P2;P0
55911;PMS5003;41823;45.534;-73.332;2022-09-24T00:00:08;336;290;
55911;PMS5003;41823;45.534;-73.332;2022-09-24T00:02:36;414;377;
55911;PMS5003;41823;45.534;-73.332;2022-09-24T00:05:04;534;457;
55911;PMS5003;41823;45.534;-73.332;2022-09-24T00:07:33;452;413;
55911;PMS5003;41823;45.534;-73.332;2022-09-24T00:10:00;287;268;
55911;PMS5003;41823;45.534;-73.332;2022-09-24T00:12:28;181;165;
55911;PMS5003;41823;45.534;-73.332;2022-09-24T00:14:56;104;98;
55911;PMS5003;41823;45.534;-73.332;2022-09-24T00:17:25;64;62;
55911;PMS5003;41823;45.534;-73.332;2022-09-24T00:19:52;34;32;
55911;PMS5003;41823;45.534;-73.332;2022-09-24T00:22:20;24;24;
55911;PMS5003;41823;45.534;-73.332;2022-09-24T00:24:48;14;13;
55911;PMS5003;41823;45.534;-73.332;2022-09-24T00:27:16;8;8;
55911;PMS5003;41823;45.534;-73.332;2022-09-24T00:29:43;6;6;
55911;PMS5003;41823;45.534;-73.332;2022-09-24T00:32:11;3;3;
55911;PMS5003;41823;45.534;-73.332;2022-09-24T00:34:39;2;2;
55911;PMS5003;41823;45.534;-73.332;2022-09-24T00:37:07;2;2;
55911;PMS5003;41823;45.534;-73.332;2022-09-24T00:39:35;2;2;
55911;PMS5003;41823;45.534;-73.332;2022-09-24T00:42:03;2;2;
55911;PMS5003;41823;45.534;-73.332;2022-09-24T00:45:03;1;1;
55911;PMS5003;41823;45.534;-73.332;2022-09-24T00:47:36;2;1;
55911;PMS5003;41823;45.534;-73.332;2022-09-24T00:50:09;1;1;
55911;PMS5003;41823;45.534;-73.332;2022-09-24T00:52:44;2;2;
55911;PMS5003;41823;45.534;-73.332;2022-09-24T00:55:15;1;1;
55911;PMS5003;41823;45.534;-73.332;2022-09-24T00:57:46;1;1;
55911;PMS5003;41823;45.534;-73.332;2022-09-24T01:00:17;1;1;
55911;PMS5003;41823;45.534;-73.332;2022-09-24T01:02:46;1;1;
55911;PMS5003;41823;45.534;-73.332;2022-09-24T01:05:18;2;2;
55911;PMS5003;41823;45.534;-73.332;2022-09-24T01:07:46;1;1;
55911;PMS5003;41823;45.534;-73.332;2022-09-24T01:10:14;2;1;
55911;PMS5003;41823;45.534;-73.332;2022-09-24T01:12:46;1;1;
55911;PMS5003;41823;45.534;-73.332;2022-09-24T01:15:21;344;313;
55911;PMS5003;41823;45.534;-73.332;2022-09-24T01:17:56;457;403;
55911;PMS5003;41823;45.534;-73.332;2022-09-24T01:21:25;542;504;
55911;PMS5003;41823;45.534;-73.332;2022-09-24T01:24:02;294;279;
55911;PMS5003;41823;45.534;-73.332;2022-09-24T01:26:53;183;167;
55911;PMS5003;41823;45.534;-73.332;2022-09-24T01:29:36;107;103;
55911;PMS5003;41823;45.534;-73.332;2022-09-24T01:32:13;69;63;
55911;PMS5003;41823;45.534;-73.332;2022-09-24T01:34:47;40;38;
55911;PMS5003;41823;45.534;-73.332;2022-09-24T01:37:22;21;21;
55911;PMS5003;41823;45.534;-73.332;2022-09-24T01:39:52;14;14;
55911;PMS5003;41823;45.534;-73.332;2022-09-24T01:42:25;8;8;
55911;PMS5003;41823;45.534;-73.332;2022-09-24T01:44:55;5;5;
55911;PMS5003;41823;45.534;-73.332;2022-09-24T01:47:28;4;4;
55911;PMS5003;41823;45.534;-73.332;2022-09-24T01:50:00;2;2;
55911;PMS5003;41823;45.534;-73.332;2022-09-24T01:52:29;3;3;
55911;PMS5003;41823;45.534;-73.332;2022-09-24T01:55:01;2;2;
55911;PMS5003;41823;45.534;-73.332;2022-09-24T01:57:34;1;1;
55911;PMS5003;41823;45.534;-73.332;2022-09-24T02:00:09;2;1;
55911;PMS5003;41823;45.534;-73.332;2022-09-24T02:02:41;1;0;
55911;PMS5003;41823;45.534;-73.332;2022-09-24T02:05:15;1;1;
55911;PMS5003;41823;45.534;-73.332;2022-09-24T02:07:47;1;1;
55911;PMS5003;41823;45.534;-73.332;2022-09-24T02:10:23;1;1;
55911;PMS5003;41823;45.534;-73.332;2022-09-24T02:13:00;1;1;
55911;PMS5003;41823;45.534;-73.332;2022-09-24T02:15:37;1;1;
55911;PMS5003;41823;45.534;-73.332;2022-09-24T02:18:09;0;0;
55911;PMS5003;41823;45.534;-73.332;2022-09-24T02:20:41;1;1;
55911;PMS5003;41823;45.534;-73.332;2022-09-24T02:23:10;0;0;
55911;PMS5003;41823;45.534;-73.332;2022-09-24T02:25:41;2;1;
55911;PMS5003;41823;45.534;-73.332;2022-09-24T02:28:13;1;1;
55911;PMS5003;41823;45.534;-73.332;2022-09-24T02:30:43;1;1;
55911;PMS5003;41823;45.534;-73.332;2022-09-24T02:33:15;0;0;
55911;PMS5003;41823;45.534;-73.332;2022-09-24T02:35:44;1;1;
55911;PMS5003;41823;45.534;-73.332;2022-09-24T02:38:14;3;2;
55911;PMS5003;41823;45.534;-73.332;2022-09-24T02:40:43;1;1;
55911;PMS5003;41823;45.534;-73.332;2022-09-24T02:43:11;1;1;
55911;PMS5003;41823;45.534;-73.332;2022-09-24T02:45:39;2;2;
55911;PMS5003;41823;45.534;-73.332;2022-09-24T02:48:07;1;1;
55911;PMS5003;41823;45.534;-73.332;2022-09-24T02:50:35;1;1;
55911;PMS5003;41823;45.534;-73.332;2022-09-24T02:53:03;0;0;
55911;PMS5003;41823;45.534;-73.332;2022-09-24T02:55:31;1;1;
55911;PMS5003;41823;45.534;-73.332;2022-09-24T02:57:59;2;2;
55911;PMS5003;41823;45.534;-73.332;2022-09-24T03:00:27;1;0;
55911;PMS5003;41823;45.534;-73.332;2022-09-24T03:02:55;1;1;
55911;PMS5003;41823;45.534;-73.332;2022-09-24T03:05:23;1;1;
55911;PMS5003;41823;45.534;-73.332;2022-09-24T03:07:51;1;1;
55911;PMS5003;41823;45.534;-73.332;2022-09-24T03:10:18;1;1;
55911;PMS5003;41823;45.534;-73.332;2022-09-24T03:12:46;1;1;
55911;PMS5003;41823;45.534;-73.332;2022-09-24T03:15:14;2;1;
55911;PMS5003;41823;45.534;-73.332;2022-09-24T03:17:42;1;0;
55911;PMS5003;41823;45.534;-73.332;2022-09-24T03:20:10;0;0;
55911;PMS5003;41823;45.534;-73.332;2022-09-24T03:22:38;1;1;
55911;PMS5003;41823;45.534;-73.332;2022-09-24T03:25:06;2;1;
55911;PMS5003;41823;45.534;-73.332;2022-09-24T03:27:36;1;1;
55911;PMS5003;41823;45.534;-73.332;2022-09-24T03:30:04;2;1;
55911;PMS5003;41823;45.534;-73.332;2022-09-24T03:32:32;1;1;
55911;PMS5003;41823;45.534;-73.332;2022-09-24T03:35:00;1;1;
55911;PMS5003;41823;45.534;-73.332;2022-09-24T03:37:29;1;1;
55911;PMS5003;41823;45.534;-73.332;2022-09-24T03:39:56;3;2;
55911;PMS5003;41823;45.534;-73.332;2022-09-24T03:42:24;2;2;
55911;PMS5003;41823;45.534;-73.332;2022-09-24T03:44:52;1;1;
55911;PMS5003;41823;45.534;-73.332;2022-09-24T03:47:20;0;0;
55911;PMS5003;41823;45.534;-73.332;2022-09-24T03:49:48;0;0;
55911;PMS5003;41823;45.534;-73.332;2022-09-24T03:52:16;1;1;
55911;PMS5003;41823;45.534;-73.332;2022-09-24T03:54:44;1;1;
55911;PMS5003;41823;45.534;-73.332;2022-09-24T03:57:12;2;2;
55911;PMS5003;41823;45.534;-73.332;2022-09-24T03:59:40;0;0;
55911;PMS5003;41823;45.534;-73.332;2022-09-24T04:02:09;1;1;
55911;PMS5003;41823;45.534;-73.332;2022-09-24T04:04:38;1;1;
55911;PMS5003;41823;45.534;-73.332;2022-09-24T04:07:06;1;1;
55911;PMS5003;41823;45.534;-73.332;2022-09-24T04:09:34;1;1;
55911;PMS5003;41823;45.534;-73.332;2022-09-24T04:12:02;1;1;
55911;PMS5003;41823;45.534;-73.332;2022-09-24T04:14:30;1;1;
55911;PMS5003;41823;45.534;-73.332;2022-09-24T04:16:58;1;1;
55911;PMS5003;41823;45.534;-73.332;2022-09-24T04:19:25;0;0;
55911;PMS5003;41823;45.534;-73.332;2022-09-24T04:21:53;1;1;
55911;PMS5003;41823;45.534;-73.332;2022-09-24T04:24:21;0;0;
55911;PMS5003;41823;45.534;-73.332;2022-09-24T04:26:49;1;1;
55911;PMS5003;41823;45.534;-73.332;2022-09-24T04:29:17;28;26;
55911;PMS5003;41823;45.534;-73.332;2022-09-24T04:31:46;361;315;
55911;PMS5003;41823;45.534;-73.332;2022-09-24T04:34:13;512;449;
55911;PMS5003;41823;45.534;-73.332;2022-09-24T04:36:40;434;393;
55911;PMS5003;41823;45.534;-73.332;2022-09-24T04:39:10;287;260;
55911;PMS5003;41823;45.534;-73.332;2022-09-24T04:41:37;197;173;
55911;PMS5003;41823;45.534;-73.332;2022-09-24T04:44:06;127;115;
55911;PMS5003;41823;45.534;-73.332;2022-09-24T04:46:33;77;75;
55911;PMS5003;41823;45.534;-73.332;2022-09-24T04:49:01;54;51;
55911;PMS5003;41823;45.534;-73.332;2022-09-24T04:51:29;37;35;
55911;PMS5003;41823;45.534;-73.332;2022-09-24T04:53:57;23;22;
55911;PMS5003;41823;45.534;-73.332;2022-09-24T04:56:25;18;16;
55911;PMS5003;41823;45.534;-73.332;2022-09-24T04:58:53;10;10;
55911;PMS5003;41823;45.534;-73.332;2022-09-24T05:01:21;6;6;
55911;PMS5003;41823;45.534;-73.332;2022-09-24T05:03:49;5;5;
55911;PMS5003;41823;45.534;-73.332;2022-09-24T05:06:17;5;5;
55911;PMS5003;41823;45.534;-73.332;2022-09-24T05:08:44;1;1;
55911;PMS5003;41823;45.534;-73.332;2022-09-24T05:11:12;2;2;
55911;PMS5003;41823;45.534;-73.332;2022-09-24T05:13:40;1;1;
55911;PMS5003;41823;45.534;-73.332;2022-09-24T05:16:08;2;1;
55911;PMS5003;41823;45.534;-73.332;2022-09-24T05:18:36;2;2;
55911;PMS5003;41823;45.534;-73.332;2022-09-24T05:21:04;1;0;
55911;PMS5003;41823;45.534;-73.332;2022-09-24T05:23:32;0;0;
55911;PMS5003;41823;45.534;-73.332;2022-09-24T05:26:00;1;1;
55911;PMS5003;41823;45.534;-73.332;2022-09-24T05:28:28;2;1;
55911;PMS5003;41823;45.534;-73.332;2022-09-24T05:30:56;1;1;
55911;PMS5003;41823;45.534;-73.332;2022-09-24T05:33:23;2;2;
55911;PMS5003;41823;45.534;-73.332;2022-09-24T05:35:52;2;2;
55911;PMS5003;41823;45.534;-73.332;2022-09-24T05:38:20;0;0;
55911;PMS5003;41823;45.534;-73.332;2022-09-24T05:40:48;1;1;
55911;PMS5003;41823;45.534;-73.332;2022-09-24T05:43:16;1;1;
55911;PMS5003;41823;45.534;-73.332;2022-09-24T05:45:45;1;1;
55911;PMS5003;41823;45.534;-73.332;2022-09-24T05:48:13;0;0;
55911;PMS5003;41823;45.534;-73.332;2022-09-24T05:50:41;1;1;
55911;PMS5003;41823;45.534;-73.332;2022-09-24T05:53:09;1;1;
55911;PMS5003;41823;45.534;-73.332;2022-09-24T05:55:37;1;1;
55911;PMS5003;41823;45.534;-73.332;2022-09-24T05:58:05;0;0;
55911;PMS5003;41823;45.534;-73.332;2022-09-24T06:00:36;2;1;
55911;PMS5003;41823;45.534;-73.332;2022-09-24T06:03:05;1;1;
55911;PMS5003;41823;45.534;-73.332;2022-09-24T06:05:37;1;1;
55911;PMS5003;41823;45.534;-73.332;2022-09-24T06:08:05;1;0;
55911;PMS5003;41823;45.534;-73.332;2022-09-24T06:10:32;2;1;
55911;PMS5003;41823;45.534;-73.332;2022-09-24T06:13:01;1;1;
55911;PMS5003;41823;45.534;-73.332;2022-09-24T06:15:29;3;2;
55911;PMS5003;41823;45.534;-73.332;2022-09-24T06:17:57;3;1;
55911;PMS5003;41823;45.534;-73.332;2022-09-24T06:20:25;1;1;
55911;PMS5003;41823;45.534;-73.332;2022-09-24T06:22:54;0;0;
55911;PMS5003;41823;45.534;-73.332;2022-09-24T06:25:22;1;1;
55911;PMS5003;41823;45.534;-73.332;2022-09-24T06:27:52;0;0;
55911;PMS5003;41823;45.534;-73.332;2022-09-24T06:30:20;1;1;
55911;PMS5003;41823;45.534;-73.332;2022-09-24T06:32:48;0;0;
55911;PMS5003;41823;45.534;-73.332;2022-09-24T06:35:16;2;1;
55911;PMS5003;41823;45.534;-73.332;2022-09-24T06:37:44;1;1;
55911;PMS5003;41823;45.534;-73.332;2022-09-24T06:40:12;1;1;
55911;PMS5003;41823;45.534;-73.332;2022-09-24T06:42:40;2;2;
55911;PMS5003;41823;45.534;-73.332;2022-09-24T06:45:08;1;1;
55911;PMS5003;41823;45.534;-73.332;2022-09-24T06:47:36;1;1;
55911;PMS5003;41823;45.534;-73.332;2022-09-24T06:50:05;0;0;
55911;PMS5003;41823;45.534;-73.332;2022-09-24T06:52:34;0;0;
55911;PMS5003;41823;45.534;-73.332;2022-09-24T06:55:02;2;1;
55911;PMS5003;41823;45.534;-73.332;2022-09-24T06:57:30;0;0;
55911;PMS5003;41823;45.534;-73.332;2022-09-24T06:59:58;0;0;
55911;PMS5003;41823;45.534;-73.332;2022-09-24T07:02:25;0;0;
55911;PMS5003;41823;45.534;-73.332;2022-09-24T07:04:53;0;0;
55911;PMS5003;41823;45.534;-73.332;2022-09-24T07:07:21;1;0;
55911;PMS5003;41823;45.534;-73.332;2022-09-24T07:09:49;1;1;
55911;PMS5003;41823;45.534;-73.332;2022-09-24T07:12:17;1;1;
55911;PMS5003;41823;45.534;-73.332;2022-09-24T07:14:45;1;1;
55911;PMS5003;41823;45.534;-73.332;2022-09-24T07:17:13;1;1;
55911;PMS5003;41823;45.534;-73.332;2022-09-24T07:19:41;1;1;
55911;PMS5003;41823;45.534;-73.332;2022-09-24T07:22:09;0;0;
55911;PMS5003;41823;45.534;-73.332;2022-09-24T07:24:37;1;1;
55911;PMS5003;41823;45.534;-73.332;2022-09-24T07:27:05;1;1;
55911;PMS5003;41823;45.534;-73.332;2022-09-24T07:29:33;0;0;
55911;PMS5003;41823;45.534;-73.332;2022-09-24T07:32:01;1;1;
55911;PMS5003;41823;45.534;-73.332;2022-09-24T07:34:29;0;0;
55911;PMS5003;41823;45.534;-73.332;2022-09-24T07:36:59;1;1;
55911;PMS5003;41823;45.534;-73.332;2022-09-24T07:39:29;0;0;
55911;PMS5003;41823;45.534;-73.332;2022-09-24T07:41:56;1;1;
55911;PMS5003;41823;45.534;-73.332;2022-09-24T07:44:24;0;0;
55911;PMS5003;41823;45.534;-73.332;2022-09-24T07:46:52;1;1;
55911;PMS5003;41823;45.534;-73.332;2022-09-24T07:49:20;0;0;
55911;PMS5003;41823;45.534;-73.332;2022-09-24T07:51:48;1;1;
55911;PMS5003;41823;45.534;-73.332;2022-09-24T07:54:16;1;1;
55911;PMS5003;41823;45.534;-73.332;2022-09-24T07:56:45;1;1;
55911;PMS5003;41823;45.534;-73.332;2022-09-24T07:59:13;1;1;
55911;PMS5003;41823;45.534;-73.332;2022-09-24T08:01:41;1;1;
55911;PMS5003;41823;45.534;-73.332;2022-09-24T08:04:09;1;1;
55911;PMS5003;41823;45.534;-73.332;2022-09-24T08:06:37;0;0;
55911;PMS5003;41823;45.534;-73.332;2022-09-24T08:09:04;1;1;
55911;PMS5003;41823;45.534;-73.332;2022-09-24T08:11:32;0;0;
55911;PMS5003;41823;45.534;-73.332;2022-09-24T08:14:00;1;1;
55911;PMS5003;41823;45.534;-73.332;2022-09-24T08:16:28;1;1;
55911;PMS5003;41823;45.534;-73.332;2022-09-24T08:18:56;2;1;
55911;PMS5003;41823;45.534;-73.332;2022-09-24T08:21:24;0;0;
55911;PMS5003;41823;45.534;-73.332;2022-09-24T08:23:52;1;1;
55911;PMS5003;41823;45.534;-73.332;2022-09-24T08:26:20;0;0;
55911;PMS5003;41823;45.534;-73.332;2022-09-24T08:28:48;1;0;
55911;PMS5003;41823;45.534;-73.332;2022-09-24T08:31:16;1;1;
55911;PMS5003;41823;45.534;-73.332;2022-09-24T08:33:43;1;1;
55911;PMS5003;41823;45.534;-73.332;2022-09-24T08:36:11;0;0;
55911;PMS5003;41823;45.534;-73.332;2022-09-24T08:38:39;0;0;
55911;PMS5003;41823;45.534;-73.332;2022-09-24T08:41:15;1;1;
55911;PMS5003;41823;45.534;-73.332;2022-09-24T08:43:54;1;1;
55911;PMS5003;41823;45.534;-73.332;2022-09-24T08:46:29;0;0;
55911;PMS5003;41823;45.534;-73.332;2022-09-24T08:49:02;1;1;
55911;PMS5003;41823;45.534;-73.332;2022-09-24T08:51:34;1;1;
55911;PMS5003;41823;45.534;-73.332;2022-09-24T08:54:08;1;1;
55911;PMS5003;41823;45.534;-73.332;2022-09-24T08:56:40;2;0;
55911;PMS5003;41823;45.534;-73.332;2022-09-24T08:59:14;1;1;
55911;PMS5003;41823;45.534;-73.332;2022-09-24T09:01:53;1;1;
55911;PMS5003;41823;45.534;-73.332;2022-09-24T09:04:29;1;1;
55911;PMS5003;41823;45.534;-73.332;2022-09-24T09:07:17;0;0;
55911;PMS5003;41823;45.534;-73.332;2022-09-24T09:09:51;0;0;
55911;PMS5003;41823;45.534;-73.332;2022-09-24T09:12:26;0;0;
55911;PMS5003;41823;45.534;-73.332;2022-09-24T09:15:02;1;1;
55911;PMS5003;41823;45.534;-73.332;2022-09-24T09:17:36;0;0;
55911;PMS5003;41823;45.534;-73.332;2022-09-24T09:20:11;0;0;
55911;PMS5003;41823;45.534;-73.332;2022-09-24T09:22:45;0;0;
55911;PMS5003;41823;45.534;-73.332;2022-09-24T09:25:17;1;1;
55911;PMS5003;41823;45.534;-73.332;2022-09-24T09:27:52;1;1;
55911;PMS5003;41823;45.534;-73.332;2022-09-24T09:30:25;1;1;
55911;PMS5003;41823;45.534;-73.332;2022-09-24T09:33:02;0;0;
55911;PMS5003;41823;45.534;-73.332;2022-09-24T09:35:42;1;1;
55911;PMS5003;41823;45.534;-73.332;2022-09-24T09:38:18;0;0;
55911;PMS5003;41823;45.534;-73.332;2022-09-24T09:40:52;0;0;
55911;PMS5003;41823;45.534;-73.332;2022-09-24T09:43:29;1;1;
55911;PMS5003;41823;45.534;-73.332;2022-09-24T09:46:04;0;0;
55911;PMS5003;41823;45.534;-73.332;2022-09-24T09:48:42;1;1;
55911;PMS5003;41823;45.534;-73.332;2022-09-24T09:51:15;1;1;
55911;PMS5003;41823;45.534;-73.332;2022-09-24T09:54:00;0;0;
55911;PMS5003;41823;45.534;-73.332;2022-09-24T09:56:30;0;0;
55911;PMS5003;41823;45.534;-73.332;2022-09-24T09:59:02;0;0;
55911;PMS5003;41823;45.534;-73.332;2022-09-24T10:01:34;1;1;
55911;PMS5003;41823;45.534;-73.332;2022-09-24T10:04:04;1;1;
55911;PMS5003;41823;45.534;-73.332;2022-09-24T10:06:33;1;1;
55911;PMS5003;41823;45.534;-73.332;2022-09-24T10:09:06;1;1;
55911;PMS5003;41823;45.534;-73.332;2022-09-24T10:11:39;1;1;
55911;PMS5003;41823;45.534;-73.332;2022-09-24T10:14:08;1;1;
55911;PMS5003;41823;45.534;-73.332;2022-09-24T10:16:40;0;0;
55911;PMS5003;41823;45.534;-73.332;2022-09-24T10:19:13;0;0;
55911;PMS5003;41823;45.534;-73.332;2022-09-24T10:21:45;1;1;
55911;PMS5003;41823;45.534;-73.332;2022-09-24T10:24:14;1;1;
55911;PMS5003;41823;45.534;-73.332;2022-09-24T10:26:45;0;0;
55911;PMS5003;41823;45.534;-73.332;2022-09-24T10:29:15;1;1;
55911;PMS5003;41823;45.534;-73.332;2022-09-24T10:31:45;0;0;
55911;PMS5003;41823;45.534;-73.332;2022-09-24T10:34:21;1;1;
55911;PMS5003;41823;45.534;-73.332;2022-09-24T10:36:53;0;0;
55911;PMS5003;41823;45.534;-73.332;2022-09-24T10:39:26;0;0;
55911;PMS5003;41823;45.534;-73.332;2022-09-24T10:41:56;0;0;
55911;PMS5003;41823;45.534;-73.332;2022-09-24T10:44:28;1;1;
55911;PMS5003;41823;45.534;-73.332;2022-09-24T10:47:06;0;0;
55911;PMS5003;41823;45.534;-73.332;2022-09-24T10:49:49;0;0;
55911;PMS5003;41823;45.534;-73.332;2022-09-24T10:52:34;1;1;
55911;PMS5003;41823;45.534;-73.332;2022-09-24T10:55:13;1;1;
55911;PMS5003;41823;45.534;-73.332;2022-09-24T10:57:57;0;0;
55911;PMS5003;41823;45.534;-73.332;2022-09-24T11:00:31;1;1;
55911;PMS5003;41823;45.534;-73.332;2022-09-24T11:03:09;0;0;
55911;PMS5003;41823;45.534;-73.332;2022-09-24T11:05:29;0;0;
55911;PMS5003;41823;45.534;-73.332;2022-09-24T11:08:03;0;0;
55911;PMS5003;41823;45.534;-73.332;2022-09-24T11:10:53;0;0;
55911;PMS5003;41823;45.534;-73.332;2022-09-24T11:13:34;0;0;
55911;PMS5003;41823;45.534;-73.332;2022-09-24T11:16:20;0;0;
55911;PMS5003;41823;45.534;-73.332;2022-09-24T11:19:02;1;1;
55911;PMS5003;41823;45.534;-73.332;2022-09-24T11:21:45;1;1;
55911;PMS5003;41823;45.534;-73.332;2022-09-24T11:24:30;0;0;
55911;PMS5003;41823;45.534;-73.332;2022-09-24T11:27:16;1;1;
55911;PMS5003;41823;45.534;-73.332;2022-09-24T11:30:07;1;0;
55911;PMS5003;41823;45.534;-73.332;2022-09-24T11:32:40;0;0;
55911;PMS5003;41823;45.534;-73.332;2022-09-24T11:35:23;1;1;
55911;PMS5003;41823;45.534;-73.332;2022-09-24T11:38:02;0;0;
55911;PMS5003;41823;45.534;-73.332;2022-09-24T11:40:39;0;0;
55911;PMS5003;41823;45.534;-73.332;2022-09-24T11:43:55;0;0;
55911;PMS5003;41823;45.534;-73.332;2022-09-24T11:46:35;0;0;
55911;PMS5003;41823;45.534;-73.332;2022-09-24T11:49:17;0;0;
55911;PMS5003;41823;45.534;-73.332;2022-09-24T11:51:59;0;0;
55911;PMS5003;41823;45.534;-73.332;2022-09-24T11:54:36;1;1;
55911;PMS5003;41823;45.534;-73.332;2022-09-24T11:57:14;0;0;
55911;PMS5003;41823;45.534;-73.332;2022-09-24T11:59:49;1;1;
55911;PMS5003;41823;45.534;-73.332;2022-09-24T12:02:21;0;0;
55911;PMS5003;41823;45.534;-73.332;2022-09-24T12:04:56;0;0;
55911;PMS5003;41823;45.534;-73.332;2022-09-24T12:07:28;0;0;
55911;PMS5003;41823;45.534;-73.332;2022-09-24T12:10:03;0;0;
55911;PMS5003;41823;45.534;-73.332;2022-09-24T12:12:43;1;0;
55911;PMS5003;41823;45.534;-73.332;2022-09-24T12:15:13;0;0;
55911;PMS5003;41823;45.534;-73.332;2022-09-24T12:17:45;0;0;
55911;PMS5003;41823;45.534;-73.332;2022-09-24T12:20:19;1;1;
55911;PMS5003;41823;45.534;-73.332;2022-09-24T12:22:52;0;0;
55911;PMS5003;41823;45.534;-73.332;2022-09-24T12:25:28;0;0;
55911;PMS5003;41823;45.534;-73.332;2022-09-24T12:28:03;0;0;
55911;PMS5003;41823;45.534;-73.332;2022-09-24T12:30:33;1;0;
55911;PMS5003;41823;45.534;-73.332;2022-09-24T12:33:08;1;0;
55911;PMS5003;41823;45.534;-73.332;2022-09-24T12:35:48;0;0;
55911;PMS5003;41823;45.534;-73.332;2022-09-24T12:38:27;0;0;
55911;PMS5003;41823;45.534;-73.332;2022-09-24T12:41:06;0;0;
55911;PMS5003;41823;45.534;-73.332;2022-09-24T12:44:12;0;0;
55911;PMS5003;41823;45.534;-73.332;2022-09-24T12:46:44;0;0;
55911;PMS5003;41823;45.534;-73.332;2022-09-24T12:49:20;0;0;
55911;PMS5003;41823;45.534;-73.332;2022-09-24T12:51:56;0;0;
55911;PMS5003;41823;45.534;-73.332;2022-09-24T12:54:27;0;0;
55911;PMS5003;41823;45.534;-73.332;2022-09-24T12:57:13;1;1;
55911;PMS5003;41823;45.534;-73.332;2022-09-24T12:59:46;0;0;
55911;PMS5003;41823;45.534;-73.332;2022-09-24T13:02:17;1;1;
55911;PMS5003;41823;45.534;-73.332;2022-09-24T13:04:49;0;0;
55911;PMS5003;41823;45.534;-73.332;2022-09-24T13:07:32;1;0;
55911;PMS5003;41823;45.534;-73.332;2022-09-24T13:10:10;0;0;
55911;PMS5003;41823;45.534;-73.332;2022-09-24T13:12:47;1;1;
55911;PMS5003;41823;45.534;-73.332;2022-09-24T13:15:22;0;0;
55911;PMS5003;41823;45.534;-73.332;2022-09-24T13:18:00;1;1;
55911;PMS5003;41823;45.534;-73.332;2022-09-24T13:20:31;0;0;
55911;PMS5003;41823;45.534;-73.332;2022-09-24T13:23:11;0;0;
55911;PMS5003;41823;45.534;-73.332;2022-09-24T13:25:41;0;0;
55911;PMS5003;41823;45.534;-73.332;2022-09-24T13:28:22;0;0;
55911;PMS5003;41823;45.534;-73.332;2022-09-24T13:30:54;0;0;
55911;PMS5003;41823;45.534;-73.332;2022-09-24T13:33:28;1;1;
55911;PMS5003;41823;45.534;-73.332;2022-09-24T13:36:02;1;1;
55911;PMS5003;41823;45.534;-73.332;2022-09-24T13:38:37;0;0;
55911;PMS5003;41823;45.534;-73.332;2022-09-24T13:41:16;0;0;
55911;PMS5003;41823;45.534;-73.332;2022-09-24T13:43:55;0;0;
55911;PMS5003;41823;45.534;-73.332;2022-09-24T13:46:26;1;1;
55911;PMS5003;41823;45.534;-73.332;2022-09-24T13:48:56;0;0;
55911;PMS5003;41823;45.534;-73.332;2022-09-24T13:51:30;1;0;
55911;PMS5003;41823;45.534;-73.332;2022-09-24T13:54:02;1;1;
55911;PMS5003;41823;45.534;-73.332;2022-09-24T13:56:39;0;0;
55911;PMS5003;41823;45.534;-73.332;2022-09-24T13:59:09;1;1;
55911;PMS5003;41823;45.534;-73.332;2022-09-24T14:01:39;0;0;
55911;PMS5003;41823;45.534;-73.332;2022-09-24T14:04:14;0;0;
55911;PMS5003;41823;45.534;-73.332;2022-09-24T14:06:44;0;0;
55911;PMS5003;41823;45.534;-73.332;2022-09-24T14:09:16;0;0;
55911;PMS5003;41823;45.534;-73.332;2022-09-24T14:11:54;0;0;
55911;PMS5003;41823;45.534;-73.332;2022-09-24T14:14:24;1;1;
55911;PMS5003;41823;45.534;-73.332;2022-09-24T14:16:53;0;0;
55911;PMS5003;41823;45.534;-73.332;2022-09-24T14:19:32;0;0;
55911;PMS5003;41823;45.534;-73.332;2022-09-24T14:22:00;1;0;
55911;PMS5003;41823;45.534;-73.332;2022-09-24T14:24:32;0;0;
55911;PMS5003;41823;45.534;-73.332;2022-09-24T14:27:06;0;0;
55911;PMS5003;41823;45.534;-73.332;2022-09-24T14:29:38;1;0;
55911;PMS5003;41823;45.534;-73.332;2022-09-24T14:32:16;0;0;
55911;PMS5003;41823;45.534;-73.332;2022-09-24T14:34:50;1;1;
55911;PMS5003;41823;45.534;-73.332;2022-09-24T14:37:21;0;0;
55911;PMS5003;41823;45.534;-73.332;2022-09-24T14:39:58;1;1;
55911;PMS5003;41823;45.534;-73.332;2022-09-24T14:42:28;2;2;
55911;PMS5003;41823;45.534;-73.332;2022-09-24T14:45:02;1;1;
55911;PMS5003;41823;45.534;-73.332;2022-09-24T14:47:36;1;0;
55911;PMS5003;41823;45.534;-73.332;2022-09-24T14:50:21;1;1;
55911;PMS5003;41823;45.534;-73.332;2022-09-24T14:52:53;0;0;
55911;PMS5003;41823;45.534;-73.332;2022-09-24T14:55:24;1;1;
55911;PMS5003;41823;45.534;-73.332;2022-09-24T14:58:02;1;1;
55911;PMS5003;41823;45.534;-73.332;2022-09-24T15:00:34;1;1;
55911;PMS5003;41823;45.534;-73.332;2022-09-24T15:03:11;1;1;
55911;PMS5003;41823;45.534;-73.332;2022-09-24T15:05:41;0;0;
55911;PMS5003;41823;45.534;-73.332;2022-09-24T15:08:16;1;1;
55911;PMS5003;41823;45.534;-73.332;2022-09-24T15:10:52;1;1;
55911;PMS5003;41823;45.534;-73.332;2022-09-24T15:13:22;0;0;
55911;PMS5003;41823;45.534;-73.332;2022-09-24T15:16:16;0;0;
55911;PMS5003;41823;45.534;-73.332;2022-09-24T15:18:48;1;1;
55911;PMS5003;41823;45.534;-73.332;2022-09-24T15:21:24;2;1;
55911;PMS5003;41823;45.534;-73.332;2022-09-24T15:23:51;1;1;
55911;PMS5003;41823;45.534;-73.332;2022-09-24T15:26:22;1;1;
55911;PMS5003;41823;45.534;-73.332;2022-09-24T15:28:53;2;2;
55911;PMS5003;41823;45.534;-73.332;2022-09-24T15:31:22;1;1;
55911;PMS5003;41823;45.534;-73.332;2022-09-24T15:33:50;0;0;
55911;PMS5003;41823;45.534;-73.332;2022-09-24T15:36:19;1;1;
55911;PMS5003;41823;45.534;-73.332;2022-09-24T15:38:47;1;1;
55911;PMS5003;41823;45.534;-73.332;2022-09-24T15:41:16;0;0;
55911;PMS5003;41823;45.534;-73.332;2022-09-24T15:43:44;0;0;
55911;PMS5003;41823;45.534;-73.332;2022-09-24T15:46:12;0;0;
55911;PMS5003;41823;45.534;-73.332;2022-09-24T15:48:40;1;1;
55911;PMS5003;41823;45.534;-73.332;2022-09-24T15:51:10;0;0;
55911;PMS5003;41823;45.534;-73.332;2022-09-24T15:53:38;1;1;
55911;PMS5003;41823;45.534;-73.332;2022-09-24T15:56:07;0;0;
55911;PMS5003;41823;45.534;-73.332;2022-09-24T15:58:35;1;1;
55911;PMS5003;41823;45.534;-73.332;2022-09-24T16:01:03;1;1;
55911;PMS5003;41823;45.534;-73.332;2022-09-24T16:03:31;1;1;
55911;PMS5003;41823;45.534;-73.332;2022-09-24T16:05:59;1;1;
55911;PMS5003;41823;45.534;-73.332;2022-09-24T16:08:27;1;1;
55911;PMS5003;41823;45.534;-73.332;2022-09-24T16:10:55;114;112;
55911;PMS5003;41823;45.534;-73.332;2022-09-24T16:13:23;439;388;
55911;PMS5003;41823;45.534;-73.332;2022-09-24T16:15:51;457;409;
55911;PMS5003;41823;45.534;-73.332;2022-09-24T16:18:19;485;437;
55911;PMS5003;41823;45.534;-73.332;2022-09-24T16:20:47;367;331;
55911;PMS5003;41823;45.534;-73.332;2022-09-24T16:23:15;211;195;
55911;PMS5003;41823;45.534;-73.332;2022-09-24T16:25:52;123;113;
55911;PMS5003;41823;45.534;-73.332;2022-09-24T16:28:21;59;56;
55911;PMS5003;41823;45.534;-73.332;2022-09-24T16:30:50;36;34;
55911;PMS5003;41823;45.534;-73.332;2022-09-24T16:33:18;22;21;
55911;PMS5003;41823;45.534;-73.332;2022-09-24T16:35:46;11;11;
55911;PMS5003;41823;45.534;-73.332;2022-09-24T16:38:15;7;7;
55911;PMS5003;41823;45.534;-73.332;2022-09-24T16:40:43;3;3;